This is the latest recevied weather packets stored in our database for station/object DJ0JJ-11. If no packets are shown the sender has not sent any weather packets the latest 10 day(s).
| Time | Temp. | Humidity | Pressure | Rain* | Wind** | Luminosity | Snow |
|---|---|---|---|---|---|---|---|
| 1777669118 | 16.67° C | 41% | 1023.5 hPa | - | - | - | - |
| 1777668218 | 17.22° C | 39% | 1023.5 hPa | - | - | - | - |
| 1777667318 | 17.22° C | 40% | 1023.6 hPa | - | - | - | - |
| 1777666418 | 17.78° C | 37% | 1023.4 hPa | - | - | - | - |
| 1777665518 | 18.33° C | 40% | 1023.4 hPa | - | - | - | - |
| 1777664617 | 18.33° C | 39% | 1023.4 hPa | - | - | - | - |
| 1777663717 | 20° C | 34% | 1023.1 hPa | - | - | - | - |
| 1777662817 | 20° C | 33% | 1023 hPa | - | - | - | - |
| 1777661917 | 20.56° C | 30% | 1023 hPa | - | - | - | - |
| 1777661017 | 21.11° C | 30% | 1022.8 hPa | - | - | - | - |
| 1777660117 | 21.67° C | 31% | 1022.8 hPa | - | - | - | - |
| 1777659217 | 22.22° C | 29% | 1022.7 hPa | - | - | - | - |
| 1777658317 | 23.33° C | 26% | 1022.5 hPa | - | - | - | - |
| 1777657416 | 26.67° C | 21% | 1022.6 hPa | - | - | - | - |
| 1777656516 | 25.56° C | 23% | 1022.6 hPa | - | - | - | - |
| 1777655616 | 25.56° C | 23% | 1022.6 hPa | - | - | - | - |
| 1777654716 | 25.56° C | 21% | 1022.6 hPa | - | - | - | - |
| 1777653816 | 25.56° C | 21% | 1022.7 hPa | - | - | - | - |
| 1777652916 | 25° C | 20% | 1022.9 hPa | - | - | - | - |
| 1777652015 | 25.56° C | 21% | 1023 hPa | - | - | - | - |
| 1777651115 | 25° C | 21% | 1023.2 hPa | - | - | - | - |
| 1777650215 | 25° C | 21% | 1023.3 hPa | - | - | - | - |
| 1777649315 | 25° C | 20% | 1023.5 hPa | - | - | - | - |
| 1777648415 | 24.44° C | 18% | 1023.6 hPa | - | - | - | - |
| 1777647514 | 24.44° C | 19% | 1023.7 hPa | - | - | - | - |
* Rain since midnight (hover to see other rain measurements)
** Current wind speed in m/s (hover to see current wind gust speed)